sensor_id;sensor_type;location;lat;lon;timestamp;temperature;humidity
21698;DHT22;11010;49.548;11.926;2023-04-03T00:00:56;4.10;99.90
21698;DHT22;11010;49.548;11.926;2023-04-03T00:03:23;3.90;99.90
21698;DHT22;11010;49.548;11.926;2023-04-03T00:05:51;3.90;99.90
21698;DHT22;11010;49.548;11.926;2023-04-03T00:08:18;3.60;99.90
21698;DHT22;11010;49.548;11.926;2023-04-03T00:10:45;3.90;99.90
21698;DHT22;11010;49.548;11.926;2023-04-03T00:13:12;3.90;99.90
21698;DHT22;11010;49.548;11.926;2023-04-03T00:15:40;3.80;99.90
21698;DHT22;11010;49.548;11.926;2023-04-03T00:18:07;3.90;99.90
21698;DHT22;11010;49.548;11.926;2023-04-03T00:20:34;4.00;99.90
21698;DHT22;11010;49.548;11.926;2023-04-03T00:23:03;4.00;99.90
21698;DHT22;11010;49.548;11.926;2023-04-03T00:25:31;4.10;99.90
21698;DHT22;11010;49.548;11.926;2023-04-03T00:27:58;4.00;99.90
21698;DHT22;11010;49.548;11.926;2023-04-03T00:30:26;4.00;99.90
21698;DHT22;11010;49.548;11.926;2023-04-03T00:32:53;4.10;99.90
21698;DHT22;11010;49.548;11.926;2023-04-03T00:35:21;4.00;99.90
21698;DHT22;11010;49.548;11.926;2023-04-03T00:37:52;3.90;99.90
21698;DHT22;11010;49.548;11.926;2023-04-03T00:40:21;4.00;99.90
21698;DHT22;11010;49.548;11.926;2023-04-03T00:42:54;4.10;99.90
21698;DHT22;11010;49.548;11.926;2023-04-03T00:45:40;4.10;99.90
21698;DHT22;11010;49.548;11.926;2023-04-03T00:48:13;4.10;99.90
21698;DHT22;11010;49.548;11.926;2023-04-03T00:50:42;4.10;99.90
21698;DHT22;11010;49.548;11.926;2023-04-03T00:53:14;4.30;99.90
21698;DHT22;11010;49.548;11.926;2023-04-03T00:55:43;4.10;99.90
21698;DHT22;11010;49.548;11.926;2023-04-03T00:58:11;4.10;99.90
21698;DHT22;11010;49.548;11.926;2023-04-03T01:00:41;4.20;99.90
21698;DHT22;11010;49.548;11.926;2023-04-03T01:03:09;4.20;99.90
21698;DHT22;11010;49.548;11.926;2023-04-03T01:05:38;4.10;99.90
21698;DHT22;11010;49.548;11.926;2023-04-03T01:08:06;4.10;99.90
21698;DHT22;11010;49.548;11.926;2023-04-03T01:10:34;4.10;99.90
21698;DHT22;11010;49.548;11.926;2023-04-03T01:13:01;4.20;99.90
21698;DHT22;11010;49.548;11.926;2023-04-03T01:15:43;4.20;99.90
21698;DHT22;11010;49.548;11.926;2023-04-03T01:18:10;4.00;99.90
21698;DHT22;11010;49.548;11.926;2023-04-03T01:26:37;4.00;99.90
21698;DHT22;11010;49.548;11.926;2023-04-03T01:29:04;4.00;99.90
21698;DHT22;11010;49.548;11.926;2023-04-03T01:31:50;4.00;99.90
21698;DHT22;11010;49.548;11.926;2023-04-03T01:34:18;4.10;99.90
21698;DHT22;11010;49.548;11.926;2023-04-03T01:36:45;4.00;99.90
21698;DHT22;11010;49.548;11.926;2023-04-03T01:39:13;4.00;99.90
21698;DHT22;11010;49.548;11.926;2023-04-03T01:41:40;3.90;99.90
21698;DHT22;11010;49.548;11.926;2023-04-03T01:44:16;3.70;99.90
21698;DHT22;11010;49.548;11.926;2023-04-03T01:46:44;3.80;99.90
21698;DHT22;11010;49.548;11.926;2023-04-03T01:49:11;3.70;99.90
21698;DHT22;11010;49.548;11.926;2023-04-03T01:51:38;3.70;99.90
21698;DHT22;11010;49.548;11.926;2023-04-03T01:54:06;3.90;99.90
21698;DHT22;11010;49.548;11.926;2023-04-03T01:56:33;3.90;99.90
21698;DHT22;11010;49.548;11.926;2023-04-03T01:59:00;4.00;99.90
21698;DHT22;11010;49.548;11.926;2023-04-03T02:01:28;4.00;99.90
21698;DHT22;11010;49.548;11.926;2023-04-03T02:03:55;3.70;99.90
21698;DHT22;11010;49.548;11.926;2023-04-03T02:06:22;3.80;99.90
21698;DHT22;11010;49.548;11.926;2023-04-03T02:08:50;3.80;99.90
21698;DHT22;11010;49.548;11.926;2023-04-03T02:11:17;3.70;99.90
21698;DHT22;11010;49.548;11.926;2023-04-03T02:13:44;3.60;99.90
21698;DHT22;11010;49.548;11.926;2023-04-03T02:16:12;3.60;99.90
21698;DHT22;11010;49.548;11.926;2023-04-03T02:18:41;3.50;99.90
21698;DHT22;11010;49.548;11.926;2023-04-03T02:21:08;3.40;99.90
21698;DHT22;11010;49.548;11.926;2023-04-03T02:23:35;3.30;99.90
21698;DHT22;11010;49.548;11.926;2023-04-03T02:26:09;3.40;99.90
21698;DHT22;11010;49.548;11.926;2023-04-03T02:28:37;3.40;99.90
21698;DHT22;11010;49.548;11.926;2023-04-03T02:31:05;3.50;99.90
21698;DHT22;11010;49.548;11.926;2023-04-03T02:33:35;3.30;99.90
21698;DHT22;11010;49.548;11.926;2023-04-03T02:36:07;3.40;99.90
21698;DHT22;11010;49.548;11.926;2023-04-03T02:38:35;3.60;99.90
21698;DHT22;11010;49.548;11.926;2023-04-03T02:41:07;3.70;99.90
21698;DHT22;11010;49.548;11.926;2023-04-03T02:43:35;3.60;99.90
21698;DHT22;11010;49.548;11.926;2023-04-03T02:46:04;3.50;99.90
21698;DHT22;11010;49.548;11.926;2023-04-03T02:48:32;3.70;99.90
21698;DHT22;11010;49.548;11.926;2023-04-03T02:50:59;3.50;99.90
21698;DHT22;11010;49.548;11.926;2023-04-03T02:53:26;3.50;99.90
21698;DHT22;11010;49.548;11.926;2023-04-03T02:55:53;3.30;99.90
21698;DHT22;11010;49.548;11.926;2023-04-03T02:58:21;3.40;99.90
21698;DHT22;11010;49.548;11.926;2023-04-03T03:00:48;3.50;99.90
21698;DHT22;11010;49.548;11.926;2023-04-03T03:03:15;3.40;99.90
21698;DHT22;11010;49.548;11.926;2023-04-03T03:05:42;3.50;99.90
21698;DHT22;11010;49.548;11.926;2023-04-03T03:08:10;3.40;99.90
21698;DHT22;11010;49.548;11.926;2023-04-03T03:10:37;3.30;99.90
21698;DHT22;11010;49.548;11.926;2023-04-03T03:13:06;3.30;99.90
21698;DHT22;11010;49.548;11.926;2023-04-03T03:15:34;2.60;99.90
21698;DHT22;11010;49.548;11.926;2023-04-03T03:18:01;3.00;99.90
21698;DHT22;11010;49.548;11.926;2023-04-03T03:20:29;3.30;99.90
21698;DHT22;11010;49.548;11.926;2023-04-03T03:22:57;3.30;99.90
21698;DHT22;11010;49.548;11.926;2023-04-03T03:25:24;3.40;99.90
21698;DHT22;11010;49.548;11.926;2023-04-03T03:27:51;3.40;99.90
21698;DHT22;11010;49.548;11.926;2023-04-03T03:30:18;3.50;99.90
21698;DHT22;11010;49.548;11.926;2023-04-03T03:32:46;3.40;99.90
21698;DHT22;11010;49.548;11.926;2023-04-03T03:35:13;3.30;99.90
21698;DHT22;11010;49.548;11.926;2023-04-03T03:37:40;3.40;99.90
21698;DHT22;11010;49.548;11.926;2023-04-03T03:40:08;3.60;99.90
21698;DHT22;11010;49.548;11.926;2023-04-03T03:42:37;3.30;99.90
21698;DHT22;11010;49.548;11.926;2023-04-03T03:45:04;3.20;99.90
21698;DHT22;11010;49.548;11.926;2023-04-03T03:47:32;3.20;99.90
21698;DHT22;11010;49.548;11.926;2023-04-03T03:49:59;3.30;99.90
21698;DHT22;11010;49.548;11.926;2023-04-03T03:52:26;3.30;99.90
21698;DHT22;11010;49.548;11.926;2023-04-03T03:54:54;3.30;99.90
21698;DHT22;11010;49.548;11.926;2023-04-03T03:57:21;3.20;99.90
21698;DHT22;11010;49.548;11.926;2023-04-03T03:59:48;3.20;99.90
21698;DHT22;11010;49.548;11.926;2023-04-03T04:02:18;3.30;99.90
21698;DHT22;11010;49.548;11.926;2023-04-03T04:04:45;3.40;99.90
21698;DHT22;11010;49.548;11.926;2023-04-03T04:07:13;3.40;99.90
21698;DHT22;11010;49.548;11.926;2023-04-03T04:09:41;3.30;99.90
21698;DHT22;11010;49.548;11.926;2023-04-03T04:12:09;3.40;99.90
21698;DHT22;11010;49.548;11.926;2023-04-03T04:14:37;3.40;99.90
21698;DHT22;11010;49.548;11.926;2023-04-03T04:17:06;3.50;99.90
21698;DHT22;11010;49.548;11.926;2023-04-03T04:19:35;3.40;99.90
21698;DHT22;11010;49.548;11.926;2023-04-03T04:22:02;3.40;99.90
21698;DHT22;11010;49.548;11.926;2023-04-03T04:24:31;3.40;99.90
21698;DHT22;11010;49.548;11.926;2023-04-03T04:27:00;3.10;99.90
21698;DHT22;11010;49.548;11.926;2023-04-03T04:29:29;3.00;99.90
21698;DHT22;11010;49.548;11.926;2023-04-03T04:32:03;3.30;99.90
21698;DHT22;11010;49.548;11.926;2023-04-03T04:34:31;3.40;99.90
21698;DHT22;11010;49.548;11.926;2023-04-03T04:36:59;3.20;99.90
21698;DHT22;11010;49.548;11.926;2023-04-03T04:39:27;3.20;99.90
21698;DHT22;11010;49.548;11.926;2023-04-03T04:41:56;3.40;99.90
21698;DHT22;11010;49.548;11.926;2023-04-03T04:44:26;3.00;99.90
21698;DHT22;11010;49.548;11.926;2023-04-03T04:46:53;3.00;99.90
21698;DHT22;11010;49.548;11.926;2023-04-03T04:49:20;3.10;99.90
21698;DHT22;11010;49.548;11.926;2023-04-03T04:51:48;3.20;99.90
21698;DHT22;11010;49.548;11.926;2023-04-03T04:54:23;3.20;99.90
21698;DHT22;11010;49.548;11.926;2023-04-03T04:56:51;3.00;99.90
21698;DHT22;11010;49.548;11.926;2023-04-03T04:59:19;2.90;99.90
21698;DHT22;11010;49.548;11.926;2023-04-03T05:01:49;3.10;99.90
21698;DHT22;11010;49.548;11.926;2023-04-03T05:04:16;3.20;99.90
21698;DHT22;11010;49.548;11.926;2023-04-03T05:06:48;3.20;99.90
21698;DHT22;11010;49.548;11.926;2023-04-03T05:09:21;3.20;99.90
21698;DHT22;11010;49.548;11.926;2023-04-03T05:11:50;3.30;99.90
21698;DHT22;11010;49.548;11.926;2023-04-03T05:14:21;3.20;99.90
21698;DHT22;11010;49.548;11.926;2023-04-03T05:16:48;3.00;99.90
21698;DHT22;11010;49.548;11.926;2023-04-03T05:19:22;3.20;99.90
21698;DHT22;11010;49.548;11.926;2023-04-03T05:21:52;3.20;99.90
21698;DHT22;11010;49.548;11.926;2023-04-03T05:24:20;3.30;99.90
21698;DHT22;11010;49.548;11.926;2023-04-03T05:26:47;3.30;99.90
21698;DHT22;11010;49.548;11.926;2023-04-03T05:29:15;3.20;99.90
21698;DHT22;11010;49.548;11.926;2023-04-03T05:31:42;3.30;99.90
21698;DHT22;11010;49.548;11.926;2023-04-03T05:34:12;3.30;99.90
21698;DHT22;11010;49.548;11.926;2023-04-03T05:36:40;3.20;99.90
21698;DHT22;11010;49.548;11.926;2023-04-03T05:39:09;3.30;99.90
21698;DHT22;11010;49.548;11.926;2023-04-03T05:41:39;3.30;99.90
21698;DHT22;11010;49.548;11.926;2023-04-03T05:44:06;3.10;99.90
21698;DHT22;11010;49.548;11.926;2023-04-03T05:46:34;3.20;99.90
21698;DHT22;11010;49.548;11.926;2023-04-03T05:49:05;3.20;99.90
21698;DHT22;11010;49.548;11.926;2023-04-03T05:51:36;3.20;99.90
21698;DHT22;11010;49.548;11.926;2023-04-03T05:54:30;3.30;99.90
21698;DHT22;11010;49.548;11.926;2023-04-03T05:57:05;3.30;99.90
21698;DHT22;11010;49.548;11.926;2023-04-03T05:59:32;3.50;99.90
21698;DHT22;11010;49.548;11.926;2023-04-03T06:01:59;3.60;99.90
21698;DHT22;11010;49.548;11.926;2023-04-03T06:04:28;3.50;99.90
21698;DHT22;11010;49.548;11.926;2023-04-03T06:06:57;3.50;99.90
21698;DHT22;11010;49.548;11.926;2023-04-03T06:09:27;3.40;99.90
21698;DHT22;11010;49.548;11.926;2023-04-03T06:11:56;3.20;99.90
21698;DHT22;11010;49.548;11.926;2023-04-03T06:14:26;3.00;99.90
21698;DHT22;11010;49.548;11.926;2023-04-03T06:16:54;2.90;99.90
21698;DHT22;11010;49.548;11.926;2023-04-03T06:19:22;2.90;99.90
21698;DHT22;11010;49.548;11.926;2023-04-03T06:21:54;2.80;99.90
21698;DHT22;11010;49.548;11.926;2023-04-03T06:24:23;2.90;99.90
21698;DHT22;11010;49.548;11.926;2023-04-03T06:26:52;3.00;99.90
21698;DHT22;11010;49.548;11.926;2023-04-03T06:29:20;3.00;99.90
21698;DHT22;11010;49.548;11.926;2023-04-03T06:31:48;2.90;99.90
21698;DHT22;11010;49.548;11.926;2023-04-03T06:34:15;3.00;99.90
21698;DHT22;11010;49.548;11.926;2023-04-03T06:36:44;3.00;99.90
21698;DHT22;11010;49.548;11.926;2023-04-03T06:39:15;3.00;99.90
21698;DHT22;11010;49.548;11.926;2023-04-03T06:41:43;2.90;99.90
21698;DHT22;11010;49.548;11.926;2023-04-03T06:44:10;2.90;99.90
21698;DHT22;11010;49.548;11.926;2023-04-03T06:46:43;2.90;99.90
21698;DHT22;11010;49.548;11.926;2023-04-03T06:49:11;3.00;99.90
21698;DHT22;11010;49.548;11.926;2023-04-03T06:51:38;2.90;99.90
21698;DHT22;11010;49.548;11.926;2023-04-03T06:54:06;3.00;99.90
21698;DHT22;11010;49.548;11.926;2023-04-03T06:56:35;3.10;99.90
21698;DHT22;11010;49.548;11.926;2023-04-03T06:59:02;3.20;99.90
21698;DHT22;11010;49.548;11.926;2023-04-03T07:01:30;3.20;99.90
21698;DHT22;11010;49.548;11.926;2023-04-03T07:03:58;3.30;99.90
21698;DHT22;11010;49.548;11.926;2023-04-03T07:06:25;3.30;99.90
21698;DHT22;11010;49.548;11.926;2023-04-03T07:08:55;3.40;99.90
21698;DHT22;11010;49.548;11.926;2023-04-03T07:11:22;3.50;99.90
21698;DHT22;11010;49.548;11.926;2023-04-03T07:13:50;3.40;99.90
21698;DHT22;11010;49.548;11.926;2023-04-03T07:16:17;3.50;99.90
21698;DHT22;11010;49.548;11.926;2023-04-03T07:18:45;3.70;99.90
21698;DHT22;11010;49.548;11.926;2023-04-03T07:21:13;3.70;99.90
21698;DHT22;11010;49.548;11.926;2023-04-03T07:23:40;3.70;99.90
21698;DHT22;11010;49.548;11.926;2023-04-03T07:26:07;3.50;99.90
21698;DHT22;11010;49.548;11.926;2023-04-03T07:28:35;3.50;99.90
21698;DHT22;11010;49.548;11.926;2023-04-03T07:31:05;3.50;99.90
21698;DHT22;11010;49.548;11.926;2023-04-03T07:33:35;3.60;99.90
21698;DHT22;11010;49.548;11.926;2023-04-03T07:36:05;3.60;99.90
21698;DHT22;11010;49.548;11.926;2023-04-03T07:38:34;3.60;99.90
21698;DHT22;11010;49.548;11.926;2023-04-03T07:41:03;3.50;99.90
21698;DHT22;11010;49.548;11.926;2023-04-03T07:43:30;3.60;99.90
21698;DHT22;11010;49.548;11.926;2023-04-03T07:45:58;3.60;99.90
21698;DHT22;11010;49.548;11.926;2023-04-03T07:48:26;3.60;99.90
21698;DHT22;11010;49.548;11.926;2023-04-03T07:50:53;3.60;99.90
21698;DHT22;11010;49.548;11.926;2023-04-03T07:53:20;3.80;99.90
21698;DHT22;11010;49.548;11.926;2023-04-03T07:55:48;3.90;99.90
21698;DHT22;11010;49.548;11.926;2023-04-03T07:58:18;3.90;99.90
21698;DHT22;11010;49.548;11.926;2023-04-03T08:00:46;3.80;99.90
21698;DHT22;11010;49.548;11.926;2023-04-03T08:03:14;3.80;99.90
21698;DHT22;11010;49.548;11.926;2023-04-03T08:05:46;3.90;99.90
21698;DHT22;11010;49.548;11.926;2023-04-03T08:08:18;3.90;99.90
21698;DHT22;11010;49.548;11.926;2023-04-03T08:10:52;4.00;99.90
21698;DHT22;11010;49.548;11.926;2023-04-03T08:13:20;4.10;99.90
21698;DHT22;11010;49.548;11.926;2023-04-03T08:15:47;4.00;99.90
21698;DHT22;11010;49.548;11.926;2023-04-03T08:18:15;4.10;99.90
21698;DHT22;11010;49.548;11.926;2023-04-03T08:20:43;4.20;99.90
21698;DHT22;11010;49.548;11.926;2023-04-03T08:23:10;4.00;99.90
21698;DHT22;11010;49.548;11.926;2023-04-03T08:25:41;3.80;99.90
21698;DHT22;11010;49.548;11.926;2023-04-03T08:28:10;4.10;99.90
21698;DHT22;11010;49.548;11.926;2023-04-03T08:30:42;4.20;99.90
21698;DHT22;11010;49.548;11.926;2023-04-03T08:33:10;4.20;99.90
21698;DHT22;11010;49.548;11.926;2023-04-03T08:35:39;4.30;99.90
21698;DHT22;11010;49.548;11.926;2023-04-03T08:38:08;4.40;99.90
21698;DHT22;11010;49.548;11.926;2023-04-03T08:40:36;4.50;99.90
21698;DHT22;11010;49.548;11.926;2023-04-03T08:46:10;4.60;99.90
21698;DHT22;11010;49.548;11.926;2023-04-03T08:48:43;4.70;99.90
21698;DHT22;11010;49.548;11.926;2023-04-03T08:51:20;4.70;99.90
21698;DHT22;11010;49.548;11.926;2023-04-03T08:54:12;5.00;99.90
21698;DHT22;11010;49.548;11.926;2023-04-03T08:56:42;5.40;99.90
21698;DHT22;11010;49.548;11.926;2023-04-03T08:59:14;5.40;99.90
21698;DHT22;11010;49.548;11.926;2023-04-03T09:01:44;5.30;99.90
21698;DHT22;11010;49.548;11.926;2023-04-03T09:04:13;5.20;99.90
21698;DHT22;11010;49.548;11.926;2023-04-03T09:06:52;5.00;99.90
21698;DHT22;11010;49.548;11.926;2023-04-03T09:15:17;4.80;99.90
21698;DHT22;11010;49.548;11.926;2023-04-03T09:23:20;5.00;99.90
21698;DHT22;11010;49.548;11.926;2023-04-03T09:25:52;5.20;99.90
21698;DHT22;11010;49.548;11.926;2023-04-03T09:28:21;5.50;99.90
21698;DHT22;11010;49.548;11.926;2023-04-03T09:30:48;5.50;99.90
21698;DHT22;11010;49.548;11.926;2023-04-03T09:33:16;5.50;99.90
21698;DHT22;11010;49.548;11.926;2023-04-03T09:35:44;5.50;99.90
21698;DHT22;11010;49.548;11.926;2023-04-03T09:38:18;5.50;99.90
21698;DHT22;11010;49.548;11.926;2023-04-03T09:41:07;5.60;99.90
21698;DHT22;11010;49.548;11.926;2023-04-03T09:43:38;6.00;99.90
21698;DHT22;11010;49.548;11.926;2023-04-03T09:46:30;5.80;99.90
21698;DHT22;11010;49.548;11.926;2023-04-03T09:49:03;5.70;99.90
21698;DHT22;11010;49.548;11.926;2023-04-03T09:51:35;5.80;99.90
21698;DHT22;11010;49.548;11.926;2023-04-03T09:54:32;6.20;99.90
21698;DHT22;11010;49.548;11.926;2023-04-03T09:57:06;6.70;99.90
21698;DHT22;11010;49.548;11.926;2023-04-03T09:59:34;6.40;99.90
21698;DHT22;11010;49.548;11.926;2023-04-03T10:02:22;6.90;99.90
21698;DHT22;11010;49.548;11.926;2023-04-03T10:04:50;6.80;99.90
21698;DHT22;11010;49.548;11.926;2023-04-03T10:07:36;7.40;99.90
21698;DHT22;11010;49.548;11.926;2023-04-03T10:12:44;7.10;99.90
21698;DHT22;11010;49.548;11.926;2023-04-03T10:15:16;7.50;99.90
21698;DHT22;11010;49.548;11.926;2023-04-03T10:17:56;8.10;99.90
21698;DHT22;11010;49.548;11.926;2023-04-03T10:20:33;8.30;99.90
21698;DHT22;11010;49.548;11.926;2023-04-03T10:32:06;9.00;99.90
21698;DHT22;11010;49.548;11.926;2023-04-03T10:34:42;9.10;99.90
21698;DHT22;11010;49.548;11.926;2023-04-03T10:37:27;9.20;99.90
21698;DHT22;11010;49.548;11.926;2023-04-03T10:40:59;9.50;99.90
21698;DHT22;11010;49.548;11.926;2023-04-03T10:43:11;10.00;99.90
21698;DHT22;11010;49.548;11.926;2023-04-03T10:46:53;9.70;99.90
21698;DHT22;11010;49.548;11.926;2023-04-03T10:49:14;9.70;99.90
21698;DHT22;11010;49.548;11.926;2023-04-03T10:51:47;9.70;99.90
21698;DHT22;11010;49.548;11.926;2023-04-03T10:54:25;10.20;99.90
21698;DHT22;11010;49.548;11.926;2023-04-03T10:56:54;10.00;99.90
21698;DHT22;11010;49.548;11.926;2023-04-03T11:00:05;9.90;99.90
21698;DHT22;11010;49.548;11.926;2023-04-03T11:02:44;9.90;99.90
21698;DHT22;11010;49.548;11.926;2023-04-03T11:05:40;10.50;99.90
21698;DHT22;11010;49.548;11.926;2023-04-03T11:09:10;10.20;99.90
21698;DHT22;11010;49.548;11.926;2023-04-03T11:11:11;10.30;99.90
21698;DHT22;11010;49.548;11.926;2023-04-03T11:14:03;10.10;99.90
21698;DHT22;11010;49.548;11.926;2023-04-03T11:16:38;9.40;99.90
21698;DHT22;11010;49.548;11.926;2023-04-03T11:19:35;9.10;99.90
21698;DHT22;11010;49.548;11.926;2023-04-03T11:22:21;9.20;99.90
21698;DHT22;11010;49.548;11.926;2023-04-03T11:27:58;9.70;99.90
21698;DHT22;11010;49.548;11.926;2023-04-03T11:30:32;9.70;99.90
21698;DHT22;11010;49.548;11.926;2023-04-03T11:36:03;9.50;99.90
21698;DHT22;11010;49.548;11.926;2023-04-03T11:38:54;8.90;99.90
21698;DHT22;11010;49.548;11.926;2023-04-03T11:41:29;9.10;99.90
21698;DHT22;11010;49.548;11.926;2023-04-03T11:47:01;8.80;99.90
21698;DHT22;11010;49.548;11.926;2023-04-03T11:50:00;9.00;99.90
21698;DHT22;11010;49.548;11.926;2023-04-03T12:11:26;11.20;99.90
21698;DHT22;11010;49.548;11.926;2023-04-03T12:18:59;10.50;99.90
21698;DHT22;11010;49.548;11.926;2023-04-03T12:29:23;11.20;99.90
21698;DHT22;11010;49.548;11.926;2023-04-03T12:37:40;11.60;99.90
21698;DHT22;11010;49.548;11.926;2023-04-03T12:51:30;13.00;99.90
21698;DHT22;11010;49.548;11.926;2023-04-03T12:54:30;12.40;99.90
21698;DHT22;11010;49.548;11.926;2023-04-03T12:57:13;11.50;99.90
21698;DHT22;11010;49.548;11.926;2023-04-03T12:59:43;11.10;99.90
21698;DHT22;11010;49.548;11.926;2023-04-03T13:02:32;10.80;99.90
21698;DHT22;11010;49.548;11.926;2023-04-03T13:05:08;11.40;99.90
21698;DHT22;11010;49.548;11.926;2023-04-03T13:07:37;12.10;99.90
21698;DHT22;11010;49.548;11.926;2023-04-03T13:12:55;10.90;99.90
21698;DHT22;11010;49.548;11.926;2023-04-03T13:15:28;11.00;99.90
21698;DHT22;11010;49.548;11.926;2023-04-03T13:17:56;10.70;99.90
21698;DHT22;11010;49.548;11.926;2023-04-03T13:20:29;10.50;99.90
21698;DHT22;11010;49.548;11.926;2023-04-03T13:23:07;10.50;99.90
21698;DHT22;11010;49.548;11.926;2023-04-03T13:25:39;11.30;99.90
21698;DHT22;11010;49.548;11.926;2023-04-03T13:28:09;11.50;99.90
21698;DHT22;11010;49.548;11.926;2023-04-03T13:30:54;10.90;99.90
21698;DHT22;11010;49.548;11.926;2023-04-03T13:33:25;10.90;99.90
21698;DHT22;11010;49.548;11.926;2023-04-03T13:36:05;11.10;99.90
21698;DHT22;11010;49.548;11.926;2023-04-03T13:38:34;11.00;99.90
21698;DHT22;11010;49.548;11.926;2023-04-03T13:41:21;10.50;99.90
21698;DHT22;11010;49.548;11.926;2023-04-03T13:43:50;10.20;99.90
21698;DHT22;11010;49.548;11.926;2023-04-03T13:46:27;10.00;99.90
21698;DHT22;11010;49.548;11.926;2023-04-03T13:48:56;10.40;99.90
21698;DHT22;11010;49.548;11.926;2023-04-03T13:51:28;9.80;99.90
21698;DHT22;11010;49.548;11.926;2023-04-03T13:53:59;9.60;99.90
21698;DHT22;11010;49.548;11.926;2023-04-03T13:56:30;9.80;99.90
21698;DHT22;11010;49.548;11.926;2023-04-03T14:01:56;10.00;99.90
21698;DHT22;11010;49.548;11.926;2023-04-03T14:07:14;10.00;99.90
21698;DHT22;11010;49.548;11.926;2023-04-03T14:09:42;10.30;99.90
21698;DHT22;11010;49.548;11.926;2023-04-03T14:12:28;10.50;99.90
21698;DHT22;11010;49.548;11.926;2023-04-03T14:15:00;10.70;99.90
21698;DHT22;11010;49.548;11.926;2023-04-03T14:17:28;10.80;99.90
21698;DHT22;11010;49.548;11.926;2023-04-03T14:19:56;10.40;99.90
21698;DHT22;11010;49.548;11.926;2023-04-03T14:22:27;10.40;99.90
21698;DHT22;11010;49.548;11.926;2023-04-03T14:24:55;9.60;99.90
21698;DHT22;11010;49.548;11.926;2023-04-03T14:27:28;9.60;99.90
21698;DHT22;11010;49.548;11.926;2023-04-03T14:29:57;9.70;99.90
21698;DHT22;11010;49.548;11.926;2023-04-03T14:32:25;9.90;99.90
21698;DHT22;11010;49.548;11.926;2023-04-03T14:34:53;9.90;99.90
21698;DHT22;11010;49.548;11.926;2023-04-03T14:37:23;9.80;99.90
21698;DHT22;11010;49.548;11.926;2023-04-03T14:39:52;9.60;99.90
21698;DHT22;11010;49.548;11.926;2023-04-03T14:42:26;9.60;99.90
21698;DHT22;11010;49.548;11.926;2023-04-03T14:44:54;9.60;99.90
21698;DHT22;11010;49.548;11.926;2023-04-03T14:47:25;9.50;99.90
21698;DHT22;11010;49.548;11.926;2023-04-03T14:50:00;9.00;99.90
21698;DHT22;11010;49.548;11.926;2023-04-03T14:52:33;9.10;99.90
21698;DHT22;11010;49.548;11.926;2023-04-03T14:55:04;9.10;99.90
21698;DHT22;11010;49.548;11.926;2023-04-03T14:57:31;9.00;99.90
21698;DHT22;11010;49.548;11.926;2023-04-03T14:59:59;8.90;99.90
21698;DHT22;11010;49.548;11.926;2023-04-03T15:04:56;8.80;99.90
21698;DHT22;11010;49.548;11.926;2023-04-03T15:07:26;8.80;99.90
21698;DHT22;11010;49.548;11.926;2023-04-03T15:09:54;9.20;99.90
21698;DHT22;11010;49.548;11.926;2023-04-03T15:12:24;9.00;99.90
21698;DHT22;11010;49.548;11.926;2023-04-03T15:14:51;8.80;99.90
21698;DHT22;11010;49.548;11.926;2023-04-03T15:17:28;8.80;99.90
21698;DHT22;11010;49.548;11.926;2023-04-03T15:19:56;8.50;99.90
21698;DHT22;11010;49.548;11.926;2023-04-03T15:22:23;8.50;99.90
21698;DHT22;11010;49.548;11.926;2023-04-03T15:24:50;8.50;99.90
21698;DHT22;11010;49.548;11.926;2023-04-03T15:27:17;8.50;99.90
21698;DHT22;11010;49.548;11.926;2023-04-03T15:29:45;8.80;99.90
21698;DHT22;11010;49.548;11.926;2023-04-03T15:32:12;8.90;99.90
21698;DHT22;11010;49.548;11.926;2023-04-03T15:34:40;9.00;99.90
21698;DHT22;11010;49.548;11.926;2023-04-03T15:37:07;8.80;99.90
21698;DHT22;11010;49.548;11.926;2023-04-03T15:39:34;8.60;99.90
21698;DHT22;11010;49.548;11.926;2023-04-03T15:42:01;8.60;99.90
21698;DHT22;11010;49.548;11.926;2023-04-03T15:44:34;8.50;99.90
21698;DHT22;11010;49.548;11.926;2023-04-03T15:47:02;8.30;99.90
21698;DHT22;11010;49.548;11.926;2023-04-03T15:49:32;8.20;99.90
21698;DHT22;11010;49.548;11.926;2023-04-03T15:51:59;8.30;99.90
21698;DHT22;11010;49.548;11.926;2023-04-03T15:54:27;8.20;99.90
21698;DHT22;11010;49.548;11.926;2023-04-03T15:56:58;8.20;99.90
21698;DHT22;11010;49.548;11.926;2023-04-03T15:59:26;8.10;99.90
21698;DHT22;11010;49.548;11.926;2023-04-03T16:01:53;8.20;99.90
21698;DHT22;11010;49.548;11.926;2023-04-03T16:04:20;8.10;99.90
21698;DHT22;11010;49.548;11.926;2023-04-03T16:06:48;7.80;99.90
21698;DHT22;11010;49.548;11.926;2023-04-03T16:09:16;7.80;99.90
21698;DHT22;11010;49.548;11.926;2023-04-03T16:11:43;8.00;99.90
21698;DHT22;11010;49.548;11.926;2023-04-03T16:14:10;7.90;99.90
21698;DHT22;11010;49.548;11.926;2023-04-03T16:16:38;7.90;99.90
21698;DHT22;11010;49.548;11.926;2023-04-03T16:19:06;8.20;99.90
21698;DHT22;11010;49.548;11.926;2023-04-03T16:21:33;8.10;99.90
21698;DHT22;11010;49.548;11.926;2023-04-03T16:24:01;7.30;99.90
21698;DHT22;11010;49.548;11.926;2023-04-03T16:26:29;7.30;99.90
21698;DHT22;11010;49.548;11.926;2023-04-03T16:28:56;7.30;99.90
21698;DHT22;11010;49.548;11.926;2023-04-03T16:31:24;7.60;99.90
21698;DHT22;11010;49.548;11.926;2023-04-03T16:33:52;7.50;99.90
21698;DHT22;11010;49.548;11.926;2023-04-03T16:36:19;7.40;99.90
21698;DHT22;11010;49.548;11.926;2023-04-03T16:38:46;7.20;99.90
21698;DHT22;11010;49.548;11.926;2023-04-03T16:41:13;7.80;99.90
21698;DHT22;11010;49.548;11.926;2023-04-03T16:43:41;7.70;99.90
21698;DHT22;11010;49.548;11.926;2023-04-03T16:46:09;7.80;99.90
21698;DHT22;11010;49.548;11.926;2023-04-03T16:48:36;7.80;99.90
21698;DHT22;11010;49.548;11.926;2023-04-03T16:51:03;7.80;99.90
21698;DHT22;11010;49.548;11.926;2023-04-03T16:53:31;7.70;99.90
21698;DHT22;11010;49.548;11.926;2023-04-03T16:55:58;7.60;99.90
21698;DHT22;11010;49.548;11.926;2023-04-03T16:58:25;7.50;99.90
21698;DHT22;11010;49.548;11.926;2023-04-03T17:00:52;7.60;99.90
21698;DHT22;11010;49.548;11.926;2023-04-03T17:03:20;7.40;99.90
21698;DHT22;11010;49.548;11.926;2023-04-03T17:05:49;7.10;99.90
21698;DHT22;11010;49.548;11.926;2023-04-03T17:08:17;7.40;99.90
21698;DHT22;11010;49.548;11.926;2023-04-03T17:10:45;7.20;99.90
21698;DHT22;11010;49.548;11.926;2023-04-03T17:13:12;7.30;99.90
21698;DHT22;11010;49.548;11.926;2023-04-03T17:15:39;7.10;99.90
21698;DHT22;11010;49.548;11.926;2023-04-03T17:18:07;7.10;99.90
21698;DHT22;11010;49.548;11.926;2023-04-03T17:20:35;6.70;99.90
21698;DHT22;11010;49.548;11.926;2023-04-03T17:23:05;7.00;99.90
21698;DHT22;11010;49.548;11.926;2023-04-03T17:25:32;7.10;99.90
21698;DHT22;11010;49.548;11.926;2023-04-03T17:27:59;6.90;99.90
21698;DHT22;11010;49.548;11.926;2023-04-03T17:30:27;6.70;99.90
21698;DHT22;11010;49.548;11.926;2023-04-03T17:32:54;6.90;99.90